Sharptown, New Jersey
Current Conditions -  °F | °C
As of 10:51 AM on Tuesday 21 Oct 2014 (Local Time) from KILG Reporting Station
Scattered Clouds Scattered Clouds  
Wind Chill: 61°   Ceiling: Unl
Heat Index: 61°   Visibility: 10mi
Dew Point: 50°   Wind: 5mph
Humidity: 67%   Direction: NA
Pressure: 29.89"   Gusts: NA
Location:  39.6335°N, 75.3233°W
Report Text: KILG 211451Z VRB04KT 10SM SCT110 16/10 A2989 RMK AO2 SLP120 T01610100 50003
Loading
Personal Weather Stations






























Interactive Weather Map
Tropical Storm Tracking
New forecast layout! Learn more

10-Day Weather Forecast

Advertisements
Track Severe Weather on mobile